Terminal Aerodrome Forecast
Issued by NWS Louisville, KY

Home | Current Version | Previous Version | Text Only | Print | Product List | Glossary On
Versions: 1 2 3 4 5 6 7 8 9 10 11 12 13 14 15
000
FTUS43 KLMK 221100
TAFLEX
TAF
KLEX 221128Z 2212/2312 23006KT P6SM VCSH BKN035
     FM221400 28008KT P6SM BKN022
     FM221800 33012G18KT P6SM SCT030
     FM230000 35005KT P6SM SKC=

USA.gov is the U.S. government's official web portal to all federal, state and local government web resources and services.